Time;durP1;ratioP1;P1;durP2;ratioP2;P2;SDS_P1;SDS_P2;PMS_P1;PMS_P2;Temp;Humidity;BMP_temperature;BMP_pressure;BME280_temperature;BME280_humidity;BME280_pressure;Samples;Min_cycle;Max_cycle;Signal;HPM_P1;HPM_P2
2023/11/30 00:00:11;;;;;;;28.03;10.13;;;0.80;99.90;;;;;;5020035;28;20188;-81
2023/11/30 00:02:36;;;;;;;30.40;11.43;;;0.70;99.90;;;;;;5037693;28;20168;-81
2023/11/30 00:05:06;;;;;;;27.23;10.90;;;0.70;99.90;;;;;;5037318;28;20189;-82
2023/11/30 00:07:32;;;;;;;28.45;10.00;;;0.70;99.90;;;;;;5037914;28;20572;-81
2023/11/30 00:09:58;;;;;;;28.30;10.33;;;0.70;99.90;;;;;;5037898;28;20171;-81
2023/11/30 00:12:24;;;;;;;27.03;9.43;;;0.80;99.90;;;;;;5037638;28;20399;-81
2023/11/30 00:14:49;;;;;;;28.53;9.70;;;0.80;99.90;;;;;;5040657;28;20529;-81
2023/11/30 00:17:15;;;;;;;29.50;10.70;;;0.80;99.90;;;;;;5040902;28;20260;-81
2023/11/30 00:19:40;;;;;;;33.63;11.80;;;0.80;99.90;;;;;;5023947;28;20167;-81
2023/11/30 00:22:06;;;;;;;29.43;10.50;;;0.80;99.90;;;;;;5024284;28;20172;-81
2023/11/30 00:24:32;;;;;;;27.47;10.60;;;0.80;99.90;;;;;;5040879;28;20216;-81
2023/11/30 00:26:57;;;;;;;29.67;11.17;;;0.70;99.90;;;;;;5041538;28;20669;-82
2023/11/30 00:29:23;;;;;;;28.53;10.90;;;0.70;99.90;;;;;;5040763;28;20176;-81
2023/11/30 00:31:49;;;;;;;30.87;11.90;;;0.70;99.90;;;;;;5042179;28;20176;-81
2023/11/30 00:34:14;;;;;;;30.80;10.53;;;0.80;99.90;;;;;;5042182;28;20192;-81
2023/11/30 00:36:40;;;;;;;28.97;10.60;;;0.80;99.90;;;;;;5041024;28;20178;-81
2023/11/30 00:39:05;;;;;;;31.67;11.40;;;0.80;99.90;;;;;;5295181;22;20223;-84
2023/11/30 00:41:31;;;;;;;26.87;10.53;;;0.80;99.90;;;;;;5106377;22;20219;-82
2023/11/30 00:43:57;;;;;;;38.33;10.63;;;0.80;99.90;;;;;;5041313;28;20611;-81
2023/11/30 00:46:22;;;;;;;29.00;10.47;;;0.80;99.90;;;;;;5041241;28;20182;-81
2023/11/30 00:48:48;;;;;;;36.33;12.20;;;0.80;99.90;;;;;;5041138;28;20537;-81
2023/11/30 00:51:14;;;;;;;30.33;12.73;;;0.80;99.90;;;;;;5040737;28;20646;-81
2023/11/30 00:53:40;;;;;;;32.57;11.73;;;0.80;99.90;;;;;;5040655;28;20193;-81
2023/11/30 00:56:10;;;;;;;29.58;10.68;;;0.80;99.90;;;;;;5023740;28;20259;-82
2023/11/30 00:58:38;;;;;;;27.80;11.20;;;0.90;99.90;;;;;;5041017;28;20203;-81
2023/11/30 01:01:04;;;;;;;33.67;11.40;;;0.90;99.90;;;;;;5040082;28;20167;-82
2023/11/30 01:03:30;;;;;;;29.70;10.17;;;0.80;99.90;;;;;;5040510;28;20190;-81
2023/11/30 01:05:56;;;;;;;35.20;12.23;;;0.90;99.90;;;;;;5040623;28;20430;-81
2023/11/30 01:08:22;;;;;;;31.60;11.33;;;0.90;99.90;;;;;;5040799;28;20736;-81
2023/11/30 01:10:47;;;;;;;29.77;10.50;;;0.90;99.90;;;;;;5040927;28;20168;-81
2023/11/30 01:13:13;;;;;;;28.50;10.57;;;0.90;99.90;;;;;;5040798;28;20220;-81
2023/11/30 01:15:38;;;;;;;29.03;10.93;;;0.90;99.90;;;;;;5040055;28;20187;-81
2023/11/30 01:18:04;;;;;;;28.83;10.60;;;1.00;99.90;;;;;;5022723;28;20285;-81
2023/11/30 01:20:33;;;;;;;28.43;10.30;;;0.90;99.90;;;;;;5040150;28;20195;-81
2023/11/30 01:22:59;;;;;;;34.95;11.30;;;0.90;99.90;;;;;;5040371;28;20916;-81
2023/11/30 01:25:25;;;;;;;26.97;10.20;;;0.90;99.90;;;;;;5038796;28;20190;-81
2023/11/30 01:27:52;;;;;;;28.33;10.73;;;0.90;99.90;;;;;;5040084;28;20178;-81
2023/11/30 01:30:18;;;;;;;28.50;10.40;;;0.90;99.90;;;;;;5040081;28;20168;-81
2023/11/30 01:32:44;;;;;;;27.80;10.35;;;1.00;99.90;;;;;;5040419;28;20170;-81
2023/11/30 01:35:13;;;;;;;30.17;10.10;;;1.00;99.90;;;;;;5039692;28;20548;-81
2023/11/30 01:37:38;;;;;;;28.60;10.00;;;1.10;99.90;;;;;;5022269;28;20455;-81
2023/11/30 01:40:08;;;;;;;32.17;11.50;;;1.10;99.90;;;;;;5039636;28;20170;-81
2023/11/30 01:42:34;;;;;;;35.10;11.15;;;1.20;99.90;;;;;;5040211;28;20184;-81
2023/11/30 01:45:00;;;;;;;32.05;11.70;;;1.20;99.90;;;;;;5022020;28;20217;-81
2023/11/30 01:47:26;;;;;;;31.33;10.77;;;1.20;99.90;;;;;;5039764;28;20196;-81
2023/11/30 01:49:51;;;;;;;28.83;11.30;;;1.20;99.90;;;;;;5039735;28;20660;-81
2023/11/30 01:52:17;;;;;;;27.60;10.60;;;1.20;99.90;;;;;;5021833;28;20227;-81
2023/11/30 01:54:44;;;;;;;28.17;10.10;;;1.20;99.90;;;;;;5039834;28;20192;-81
2023/11/30 01:57:10;;;;;;;30.77;10.15;;;1.10;99.90;;;;;;5039160;28;20528;-81
2023/11/30 01:59:36;;;;;;;29.83;10.70;;;1.10;99.90;;;;;;5039529;28;20593;-81
2023/11/30 02:02:01;;;;;;;28.93;11.00;;;1.10;99.90;;;;;;5039325;28;20432;-82
2023/11/30 02:04:30;;;;;;;30.97;10.83;;;1.10;99.90;;;;;;5039296;28;20430;-81
2023/11/30 02:06:56;;;;;;;30.33;10.27;;;1.20;99.90;;;;;;5039574;28;20172;-81
2023/11/30 02:09:22;;;;;;;30.90;11.23;;;1.10;99.90;;;;;;5039073;28;20190;-81
2023/11/30 02:11:48;;;;;;;28.60;10.17;;;1.10;99.90;;;;;;5021316;28;20584;-81
2023/11/30 02:14:21;;;;;;;30.97;9.80;;;1.10;99.90;;;;;;5039082;28;20427;-81
2023/11/30 02:16:46;;;;;;;30.23;10.20;;;1.10;99.90;;;;;;5039358;28;20168;-81
2023/11/30 02:19:12;;;;;;;30.30;9.83;;;1.10;99.90;;;;;;5021174;28;20168;-81
2023/11/30 02:21:38;;;;;;;28.57;9.93;;;1.10;99.90;;;;;;5038569;28;20165;-81
2023/11/30 02:24:04;;;;;;;29.90;10.13;;;1.10;99.90;;;;;;5020725;28;20192;-81
2023/11/30 02:26:29;;;;;;;34.60;11.02;;;1.10;99.90;;;;;;5038950;28;20641;-81
2023/11/30 02:28:55;;;;;;;30.67;9.60;;;1.10;99.90;;;;;;5039052;28;20210;-81
2023/11/30 02:31:21;;;;;;;33.10;10.00;;;1.10;99.90;;;;;;5038587;28;20196;-81
2023/11/30 02:33:46;;;;;;;29.50;10.20;;;1.10;99.90;;;;;;5038767;28;20553;-82
2023/11/30 02:36:12;;;;;;;28.60;11.50;;;1.10;99.90;;;;;;5020797;28;20197;-81
2023/11/30 02:38:38;;;;;;;29.23;10.03;;;1.10;99.90;;;;;;5021254;28;20624;-81
2023/11/30 02:41:04;;;;;;;27.93;9.53;;;1.10;99.90;;;;;;5038262;28;20423;-81
2023/11/30 02:43:29;;;;;;;29.50;10.63;;;1.10;99.90;;;;;;5038374;28;20549;-81
2023/11/30 02:45:55;;;;;;;34.27;10.63;;;1.00;99.90;;;;;;5020928;28;20410;-81
2023/11/30 02:48:21;;;;;;;30.20;10.10;;;1.00;99.90;;;;;;5038523;28;20167;-81
2023/11/30 02:50:47;;;;;;;30.90;9.90;;;1.00;99.90;;;;;;5038044;28;20412;-81
2023/11/30 02:53:12;;;;;;;28.30;10.40;;;1.00;99.90;;;;;;5038272;28;20703;-81
2023/11/30 02:55:38;;;;;;;27.60;10.50;;;1.20;99.90;;;;;;5038787;28;20192;-81
2023/11/30 02:58:03;;;;;;;27.50;9.03;;;1.20;99.90;;;;;;5037812;28;20201;-81
2023/11/30 03:00:29;;;;;;;31.80;9.87;;;1.30;99.90;;;;;;5021075;28;20583;-81
2023/11/30 03:02:55;;;;;;;30.03;11.17;;;1.30;99.90;;;;;;5038667;28;20168;-81
2023/11/30 03:05:20;;;;;;;28.37;9.20;;;1.40;99.90;;;;;;5038652;28;20180;-81
2023/11/30 03:07:46;;;;;;;27.87;10.30;;;1.50;99.90;;;;;;5038312;28;20168;-81
2023/11/30 03:10:12;;;;;;;28.03;9.27;;;1.40;99.90;;;;;;5020532;28;20600;-81
2023/11/30 03:12:37;;;;;;;31.50;9.40;;;1.40;99.90;;;;;;5020585;28;20198;-81
2023/11/30 03:15:03;;;;;;;35.53;10.20;;;1.50;99.90;;;;;;5038233;28;20208;-81
2023/11/30 03:17:30;;;;;;;34.30;10.50;;;1.50;99.90;;;;;;5037929;28;20548;-81
2023/11/30 03:19:55;;;;;;;28.52;10.43;;;1.60;99.90;;;;;;5020658;28;20434;-81
2023/11/30 03:22:21;;;;;;;28.80;9.03;;;1.50;99.90;;;;;;5038185;28;20166;-81
2023/11/30 03:24:47;;;;;;;29.73;11.20;;;1.50;99.90;;;;;;5038034;28;20192;-81
2023/11/30 03:27:13;;;;;;;34.00;9.33;;;1.40;99.90;;;;;;5037485;28;20172;-81
2023/11/30 03:29:38;;;;;;;34.17;11.23;;;1.40;99.90;;;;;;5038135;28;20699;-81
2023/11/30 03:32:04;;;;;;;27.63;9.20;;;1.30;99.90;;;;;;5038110;28;20168;-81
2023/11/30 03:34:30;;;;;;;32.17;10.93;;;1.30;99.90;;;;;;5038156;28;20429;-81
2023/11/30 03:36:56;;;;;;;28.10;9.97;;;1.40;99.90;;;;;;5037979;28;20203;-81
2023/11/30 03:39:21;;;;;;;43.83;10.70;;;1.40;99.90;;;;;;5020126;28;20412;-82
2023/11/30 03:41:47;;;;;;;29.40;9.40;;;1.40;99.90;;;;;;5019943;28;20192;-81
2023/11/30 03:44:12;;;;;;;27.20;9.90;;;1.40;99.90;;;;;;5110450;22;20234;-82
2023/11/30 03:46:38;;;;;;;29.17;10.60;;;1.30;99.90;;;;;;5110346;22;20265;-81
2023/11/30 03:49:04;;;;;;;34.40;9.53;;;1.40;99.90;;;;;;5040716;28;20230;-81
2023/11/30 03:51:30;;;;;;;30.50;9.90;;;1.50;99.90;;;;;;5041649;28;20406;-82
2023/11/30 03:53:55;;;;;;;29.17;9.50;;;1.50;99.90;;;;;;5041887;28;20191;-81
2023/11/30 03:56:21;;;;;;;30.70;10.80;;;1.50;99.90;;;;;;5041853;28;20160;-81
2023/11/30 03:58:47;;;;;;;32.67;10.53;;;1.50;99.90;;;;;;5042028;28;20218;-81
2023/11/30 04:01:49;;;;;;;27.23;10.20;;;1.40;99.90;;;;;;5041414;28;20171;-81
2023/11/30 04:04:15;;;;;;;27.02;9.43;;;1.40;99.90;;;;;;5023635;28;20192;-82
2023/11/30 04:06:40;;;;;;;30.30;10.30;;;1.40;99.90;;;;;;5042479;28;20583;-81
2023/11/30 04:09:06;;;;;;;26.13;10.00;;;1.40;99.90;;;;;;5041838;28;20956;-81
2023/11/30 04:11:32;;;;;;;32.83;10.40;;;1.40;99.90;;;;;;5041954;28;20156;-82
2023/11/30 04:14:05;;;;;;;30.77;10.00;;;1.50;99.90;;;;;;5024540;28;20649;-82
2023/11/30 04:16:30;;;;;;;29.77;10.32;;;1.50;99.90;;;;;;5041882;28;20164;-82
2023/11/30 04:18:56;;;;;;;29.30;10.60;;;1.50;99.90;;;;;;5042199;28;20196;-82
2023/11/30 04:21:22;;;;;;;30.57;11.17;;;1.40;99.90;;;;;;5024061;28;20171;-82
2023/11/30 04:23:48;;;;;;;28.33;9.05;;;1.40;99.90;;;;;;5042886;28;20283;-81
2023/11/30 04:26:13;;;;;;;29.50;9.87;;;1.40;99.90;;;;;;5024593;28;20201;-82
2023/11/30 04:28:39;;;;;;;32.17;10.00;;;1.50;99.90;;;;;;5041470;28;20177;-81
2023/11/30 04:31:05;;;;;;;32.43;11.43;;;1.50;99.90;;;;;;5024637;28;20179;-81
2023/11/30 04:33:30;;;;;;;32.28;9.55;;;1.50;99.90;;;;;;5041429;28;20192;-82
2023/11/30 04:35:56;;;;;;;30.03;10.20;;;1.40;99.90;;;;;;5041654;28;20171;-81
2023/11/30 04:38:22;;;;;;;34.07;10.93;;;1.50;99.90;;;;;;5024103;28;20245;-81
2023/11/30 04:40:47;;;;;;;34.63;10.63;;;1.40;99.90;;;;;;5023857;28;20258;-81
2023/11/30 04:43:13;;;;;;;32.03;12.37;;;1.40;99.90;;;;;;5041361;28;20166;-81
2023/11/30 04:45:39;;;;;;;30.70;11.23;;;1.40;99.90;;;;;;5023827;28;20233;-81
2023/11/30 04:48:04;;;;;;;36.00;12.80;;;1.40;99.90;;;;;;5023405;28;20175;-81
2023/11/30 04:50:30;;;;;;;32.90;12.60;;;1.40;99.90;;;;;;5023373;28;20270;-81
2023/11/30 04:52:56;;;;;;;33.40;11.40;;;1.40;99.90;;;;;;5041755;28;20179;-81
2023/11/30 04:55:22;;;;;;;26.98;8.55;;;1.40;99.90;;;;;;5041255;28;20193;-81
2023/11/30 04:57:48;;;;;;;35.40;11.23;;;1.50;99.90;;;;;;5023494;28;20195;-81
2023/11/30 05:00:14;;;;;;;34.55;11.68;;;1.50;99.90;;;;;;5039658;28;20562;-81
2023/11/30 05:02:52;;;;;;;38.55;11.90;;;1.50;99.90;;;;;;5041444;28;20171;-81
2023/11/30 05:05:19;;;;;;;34.03;11.23;;;1.50;99.90;;;;;;5041548;28;20211;-81
2023/11/30 05:07:45;;;;;;;33.47;11.45;;;1.50;99.90;;;;;;5023226;28;20175;-81
2023/11/30 05:10:10;;;;;;;35.90;12.50;;;1.40;99.90;;;;;;5040978;28;20545;-81
2023/11/30 05:12:36;;;;;;;32.73;11.43;;;1.50;99.90;;;;;;5041234;28;20596;-81
2023/11/30 05:15:03;;;;;;;33.33;11.80;;;1.40;99.90;;;;;;5041103;28;20191;-81
2023/11/30 05:17:28;;;;;;;35.67;11.05;;;1.50;99.90;;;;;;5041178;28;20861;-81
2023/11/30 05:19:54;;;;;;;42.93;11.50;;;1.40;99.90;;;;;;5040679;28;20164;-81
2023/11/30 05:22:20;;;;;;;33.65;12.35;;;1.50;99.90;;;;;;5041415;28;20168;-81
2023/11/30 05:24:50;;;;;;;32.30;12.50;;;1.50;99.90;;;;;;5041157;28;20195;-81
2023/11/30 05:27:16;;;;;;;37.63;12.13;;;1.40;99.90;;;;;;5040999;28;20172;-81
2023/11/30 05:29:42;;;;;;;30.85;11.60;;;1.40;99.90;;;;;;5022977;28;20655;-80
2023/11/30 05:32:08;;;;;;;34.67;12.17;;;1.50;99.90;;;;;;5023116;28;20172;-81
2023/11/30 05:34:35;;;;;;;34.90;12.17;;;1.60;99.90;;;;;;5040913;28;20283;-81
2023/11/30 05:37:03;;;;;;;34.45;12.32;;;1.60;99.90;;;;;;5040470;28;20664;-81
2023/11/30 05:39:32;;;;;;;34.13;12.73;;;1.70;99.90;;;;;;5022681;28;20243;-81
2023/11/30 05:41:59;;;;;;;32.65;10.93;;;1.80;99.90;;;;;;5022226;28;20199;-81
2023/11/30 05:44:24;;;;;;;33.45;11.55;;;1.70;99.90;;;;;;5040423;28;20205;-81
2023/11/30 05:46:50;;;;;;;35.40;12.23;;;1.70;99.90;;;;;;5040413;28;20285;-81
2023/11/30 05:49:16;;;;;;;31.70;10.70;;;1.70;99.90;;;;;;5040087;28;20187;-81
2023/11/30 05:51:41;;;;;;;31.90;11.53;;;1.60;99.90;;;;;;5040161;28;20174;-81
2023/11/30 05:54:08;;;;;;;30.60;10.40;;;1.70;99.90;;;;;;5022706;28;20189;-81
2023/11/30 05:56:34;;;;;;;33.53;11.70;;;1.70;99.90;;;;;;5021162;28;20176;-81
2023/11/30 05:59:00;;;;;;;34.47;13.07;;;1.70;99.90;;;;;;5039482;28;20295;-81
2023/11/30 06:01:25;;;;;;;31.07;10.40;;;1.70;99.90;;;;;;5022350;28;20217;-81
2023/11/30 06:03:51;;;;;;;33.57;10.97;;;1.70;99.90;;;;;;5040333;28;20430;-81
2023/11/30 06:06:17;;;;;;;34.90;11.70;;;1.70;99.90;;;;;;5039859;28;20159;-81
2023/11/30 06:08:42;;;;;;;33.50;10.90;;;1.80;99.90;;;;;;5039822;28;20168;-80
2023/11/30 06:11:08;;;;;;;28.87;9.43;;;1.80;99.90;;;;;;5021694;28;20403;-80
2023/11/30 06:13:34;;;;;;;32.57;11.17;;;1.90;99.90;;;;;;5039074;28;20275;-81
2023/11/30 06:16:00;;;;;;;38.20;11.73;;;1.90;99.90;;;;;;5039348;28;20638;-80
2023/11/30 06:18:25;;;;;;;31.67;10.43;;;1.90;99.90;;;;;;5039110;28;20188;-80
2023/11/30 06:20:51;;;;;;;33.93;12.50;;;1.90;99.90;;;;;;5039214;28;20164;-80
2023/11/30 06:23:17;;;;;;;31.00;10.10;;;1.90;99.90;;;;;;5038933;28;20184;-80
2023/11/30 06:25:43;;;;;;;34.73;11.60;;;1.80;99.90;;;;;;5039479;28;20658;-80
2023/11/30 06:28:08;;;;;;;37.63;12.23;;;1.90;99.90;;;;;;5039110;28;20176;-80
2023/11/30 06:30:34;;;;;;;36.80;10.83;;;1.90;99.90;;;;;;5038010;28;20430;-80
2023/11/30 06:33:00;;;;;;;36.13;11.67;;;1.90;99.90;;;;;;5020399;28;20170;-80
2023/11/30 06:35:25;;;;;;;38.03;13.20;;;1.90;99.90;;;;;;5038434;28;20423;-80
2023/11/30 06:37:51;;;;;;;36.60;12.83;;;1.90;99.90;;;;;;5038797;28;20185;-80
2023/11/30 06:40:17;;;;;;;32.67;12.10;;;1.90;99.90;;;;;;5038738;28;20167;-79
2023/11/30 06:42:46;;;;;;;33.77;13.07;;;2.00;99.90;;;;;;5038834;28;20195;-79
2023/11/30 06:45:11;;;;;;;33.83;11.95;;;1.90;99.90;;;;;;5020592;28;20214;-79
2023/11/30 06:47:37;;;;;;;33.17;11.90;;;1.90;99.90;;;;;;5038635;28;20176;-80
2023/11/30 06:50:07;;;;;;;32.13;12.30;;;1.90;99.90;;;;;;5038451;28;20167;-79
2023/11/30 06:52:33;;;;;;;34.30;11.95;;;1.90;99.90;;;;;;5020474;28;20193;-79
2023/11/30 06:54:58;;;;;;;33.50;11.27;;;1.90;99.90;;;;;;5038059;28;20279;-79
2023/11/30 06:57:24;;;;;;;33.20;11.60;;;2.00;99.90;;;;;;5037994;28;20230;-79
2023/11/30 06:59:50;;;;;;;32.57;11.27;;;2.00;99.90;;;;;;5038685;28;20184;-79
2023/11/30 07:02:15;;;;;;;36.20;11.23;;;2.00;99.90;;;;;;5038436;28;20172;-79
2023/11/30 07:04:41;;;;;;;32.47;10.40;;;2.00;99.90;;;;;;5038247;28;20783;-79
2023/11/30 07:07:07;;;;;;;34.80;12.73;;;1.90;99.90;;;;;;5037978;28;20629;-79
2023/11/30 07:09:32;;;;;;;36.50;12.73;;;1.90;99.90;;;;;;5037712;28;20259;-79
2023/11/30 07:11:58;;;;;;;35.40;12.30;;;1.90;99.90;;;;;;5037944;28;20711;-79
2023/11/30 07:14:24;;;;;;;36.20;12.20;;;1.90;99.90;;;;;;5038184;28;21069;-79
2023/11/30 07:16:49;;;;;;;34.00;11.70;;;1.90;99.90;;;;;;5037650;28;20646;-79
2023/11/30 07:19:15;;;;;;;34.53;10.50;;;1.90;99.90;;;;;;5019763;28;20537;-79
2023/11/30 07:21:41;;;;;;;36.40;12.87;;;1.90;99.90;;;;;;5037722;28;20220;-79
2023/11/30 07:24:08;;;;;;;40.90;15.33;;;1.90;99.90;;;;;;5019527;28;20189;-79
2023/11/30 07:26:33;;;;;;;37.20;12.13;;;1.90;99.90;;;;;;5037594;28;20173;-79
2023/11/30 07:28:59;;;;;;;35.03;12.13;;;2.00;99.90;;;;;;5020194;28;20716;-79
2023/11/30 07:31:25;;;;;;;36.10;12.67;;;2.00;99.90;;;;;;5037813;28;20653;-79
2023/11/30 07:33:50;;;;;;;33.93;11.73;;;1.90;99.90;;;;;;5019883;28;20215;-79
2023/11/30 07:36:16;;;;;;;36.70;13.90;;;2.00;99.90;;;;;;5038287;28;20702;-79
2023/11/30 07:38:42;;;;;;;36.77;12.40;;;1.90;99.90;;;;;;5019870;28;20197;-79
2023/11/30 07:41:08;;;;;;;34.77;12.90;;;1.90;99.90;;;;;;5037468;28;20161;-79
2023/11/30 07:43:33;;;;;;;40.30;13.82;;;1.90;99.90;;;;;;5037790;28;20190;-79
2023/11/30 07:45:59;;;;;;;34.23;11.47;;;1.90;99.90;;;;;;5037787;28;20183;-79
2023/11/30 07:48:25;;;;;;;38.80;12.40;;;2.00;99.90;;;;;;5020121;28;20426;-79
2023/11/30 07:50:51;;;;;;;35.50;12.57;;;2.10;99.90;;;;;;5020047;28;20235;-79
2023/11/30 07:53:18;;;;;;;36.93;12.17;;;2.00;99.90;;;;;;5038038;28;20908;-79
2023/11/30 07:55:44;;;;;;;36.72;11.43;;;2.10;99.90;;;;;;5037913;28;20415;-79
2023/11/30 07:58:10;;;;;;;40.05;12.48;;;2.10;99.90;;;;;;5020199;28;20195;-80
2023/11/30 08:00:36;;;;;;;34.78;11.70;;;2.20;99.90;;;;;;5038064;28;20190;-80
2023/11/30 08:03:02;;;;;;;34.13;11.57;;;2.10;99.90;;;;;;5037394;28;20200;-80
2023/11/30 08:05:28;;;;;;;36.33;13.07;;;2.10;99.90;;;;;;5037157;28;20165;-80
2023/11/30 08:07:54;;;;;;;36.45;13.13;;;2.10;99.90;;;;;;5020344;28;20179;-80
2023/11/30 08:10:21;;;;;;;36.83;12.25;;;2.20;99.90;;;;;;5019725;28;20198;-80
2023/11/30 08:12:46;;;;;;;36.13;11.82;;;2.10;99.90;;;;;;5036953;28;20167;-80
2023/11/30 08:15:12;;;;;;;36.73;14.63;;;2.10;99.90;;;;;;5019347;28;20615;-80
2023/11/30 08:17:38;;;;;;;36.22;12.75;;;2.10;99.90;;;;;;5037590;28;20213;-80
2023/11/30 08:20:09;;;;;;;38.30;13.13;;;2.20;99.90;;;;;;5036472;28;20545;-80
2023/11/30 08:22:46;;;;;;;33.03;11.63;;;2.20;99.90;;;;;;5036560;28;20148;-80
2023/11/30 08:25:13;;;;;;;37.13;12.90;;;2.20;99.90;;;;;;5036804;28;20269;-80
2023/11/30 08:27:38;;;;;;;32.15;11.90;;;2.30;99.90;;;;;;5036704;28;20608;-80
2023/11/30 08:30:05;;;;;;;34.20;10.50;;;2.30;99.90;;;;;;5018731;28;20173;-80
2023/11/30 08:32:31;;;;;;;43.22;15.45;;;2.30;99.90;;;;;;5019489;28;20269;-80
2023/11/30 08:34:56;;;;;;;41.63;13.17;;;2.30;99.90;;;;;;5038679;28;20664;-80
2023/11/30 08:37:22;;;;;;;36.17;12.90;;;2.30;99.90;;;;;;5040186;28;20193;-80
2023/11/30 08:39:48;;;;;;;34.73;12.20;;;2.30;99.90;;;;;;5040975;28;20261;-80
2023/11/30 08:42:14;;;;;;;38.27;12.33;;;2.30;99.90;;;;;;5040516;28;20165;-80
2023/11/30 08:44:41;;;;;;;33.92;12.90;;;2.40;99.90;;;;;;5040546;28;20246;-80
2023/11/30 08:47:07;;;;;;;37.17;12.68;;;2.40;99.90;;;;;;5022347;28;20177;-80
2023/11/30 08:49:33;;;;;;;35.45;12.10;;;2.40;99.90;;;;;;5022143;28;20174;-80
2023/11/30 08:51:58;;;;;;;43.27;13.03;;;2.40;99.90;;;;;;5040169;28;20255;-80
2023/11/30 08:54:24;;;;;;;38.53;12.60;;;2.50;99.90;;;;;;5040434;28;20188;-80
2023/11/30 08:56:50;;;;;;;35.97;12.50;;;2.60;99.90;;;;;;5022993;28;20537;-80
2023/11/30 08:59:16;;;;;;;35.27;13.73;;;2.60;99.90;;;;;;5040673;28;20576;-80
2023/11/30 09:01:42;;;;;;;34.40;12.55;;;2.70;99.90;;;;;;5039873;28;20197;-80
2023/11/30 09:04:08;;;;;;;39.23;13.03;;;2.70;99.90;;;;;;5039447;28;20183;-80
2023/11/30 09:06:34;;;;;;;38.60;11.57;;;2.80;99.90;;;;;;5039931;28;20487;-80
2023/11/30 09:09:01;;;;;;;36.77;11.90;;;2.90;99.90;;;;;;5040467;28;20420;-80
2023/11/30 09:11:29;;;;;;;35.88;12.38;;;2.90;99.90;;;;;;5039668;28;20407;-80
2023/11/30 09:13:58;;;;;;;33.25;10.55;;;3.00;99.90;;;;;;5039846;28;20257;-80
2023/11/30 09:16:25;;;;;;;33.47;10.90;;;3.00;99.90;;;;;;5040007;28;20169;-80
2023/11/30 09:18:52;;;;;;;33.65;10.93;;;3.10;99.90;;;;;;5021860;28;20190;-80
2023/11/30 09:21:18;;;;;;;36.13;11.68;;;3.10;99.90;;;;;;5039905;28;20240;-80
2023/11/30 09:23:43;;;;;;;32.55;10.30;;;3.10;99.90;;;;;;5022468;28;20188;-80
2023/11/30 09:26:09;;;;;;;31.40;9.70;;;3.10;99.90;;;;;;5022186;28;20567;-80
2023/11/30 09:28:38;;;;;;;36.58;11.27;;;3.20;99.90;;;;;;5039946;28;20506;-80
2023/11/30 09:31:05;;;;;;;31.05;9.98;;;3.20;99.90;;;;;;5021733;28;20208;-81
2023/11/30 09:33:31;;;;;;;35.20;11.07;;;3.10;99.90;;;;;;5039490;28;20192;-81
2023/11/30 09:35:59;;;;;;;33.33;10.13;;;3.20;99.90;;;;;;5039679;28;20194;-80
2023/11/30 09:38:25;;;;;;;38.70;11.25;;;3.30;99.90;;;;;;5039170;28;20444;-80
2023/11/30 09:40:52;;;;;;;32.97;10.05;;;3.30;99.90;;;;;;5039599;28;20605;-81
2023/11/30 09:43:17;;;;;;;31.90;10.50;;;3.40;99.90;;;;;;5039132;28;20641;-81
2023/11/30 09:45:47;;;;;;;32.80;11.13;;;3.40;99.90;;;;;;5038607;28;20196;-81
2023/11/30 09:48:14;;;;;;;30.58;9.52;;;3.50;99.90;;;;;;5021838;28;20720;-81
2023/11/30 09:50:40;;;;;;;32.03;9.93;;;3.40;99.90;;;;;;5039695;28;20542;-81
2023/11/30 09:53:06;;;;;;;34.93;10.30;;;3.50;99.90;;;;;;5021665;28;20183;-80
2023/11/30 09:55:36;;;;;;;31.13;9.35;;;3.50;99.90;;;;;;5039872;28;20403;-81
2023/11/30 09:58:03;;;;;;;31.45;9.73;;;3.50;99.90;;;;;;5039223;28;20182;-81
2023/11/30 10:00:29;;;;;;;37.88;9.68;;;3.50;99.90;;;;;;5021612;28;20193;-81
2023/11/30 10:02:57;;;;;;;28.40;8.70;;;3.50;99.90;;;;;;5039620;28;20172;-81
2023/11/30 10:05:25;;;;;;;31.45;9.43;;;3.50;99.90;;;;;;5021695;28;20189;-81
2023/11/30 10:07:53;;;;;;;32.85;9.90;;;3.50;99.90;;;;;;5039565;28;20508;-81
2023/11/30 10:10:19;;;;;;;29.58;9.10;;;3.50;99.90;;;;;;5039055;28;20303;-81
2023/11/30 10:12:45;;;;;;;33.60;9.10;;;3.50;99.90;;;;;;5021387;28;20599;-81
2023/11/30 10:15:11;;;;;;;32.17;9.07;;;3.40;99.90;;;;;;5038465;28;20276;-81
2023/11/30 10:17:37;;;;;;;32.97;10.60;;;3.50;99.90;;;;;;5021287;28;20479;-81
2023/11/30 10:20:04;;;;;;;30.40;10.13;;;3.50;99.90;;;;;;5021848;28;20257;-81
2023/11/30 10:22:30;;;;;;;30.45;8.60;;;3.40;99.90;;;;;;5039051;28;20189;-81
2023/11/30 10:24:56;;;;;;;29.60;9.23;;;3.50;99.90;;;;;;5038639;28;20578;-81
2023/11/30 10:27:24;;;;;;;27.70;8.50;;;3.50;99.90;;;;;;5038609;28;20401;-81
2023/11/30 10:29:53;;;;;;;28.70;8.88;;;3.60;99.90;;;;;;5038883;28;20169;-81
2023/11/30 10:32:22;;;;;;;30.95;8.75;;;3.50;99.90;;;;;;5039177;28;20181;-81
2023/11/30 10:34:52;;;;;;;28.48;8.52;;;3.70;99.90;;;;;;5038978;28;20192;-80
2023/11/30 10:37:24;;;;;;;33.25;10.27;;;3.70;99.90;;;;;;5038247;28;20223;-80
2023/11/30 10:40:01;;;;;;;29.70;9.30;;;3.70;99.90;;;;;;5021194;28;20162;-80
2023/11/30 10:42:28;;;;;;;28.27;9.00;;;3.70;99.90;;;;;;5020856;28;20165;-80
2023/11/30 10:45:00;;;;;;;28.50;8.75;;;3.80;99.90;;;;;;5038268;28;20185;-80
2023/11/30 10:47:28;;;;;;;29.98;8.77;;;3.80;99.90;;;;;;5038693;28;20142;-81
2023/11/30 10:50:00;;;;;;;30.63;8.57;;;3.80;99.90;;;;;;5038014;28;20580;-80
2023/11/30 10:52:30;;;;;;;29.58;9.15;;;3.80;99.90;;;;;;5020995;28;20178;-82
2023/11/30 10:55:04;;;;;;;30.27;9.50;;;3.70;99.90;;;;;;5020286;28;20246;-82
2023/11/30 10:57:31;;;;;;;28.00;8.60;;;3.60;99.90;;;;;;5038415;28;20685;-80
2023/11/30 10:59:59;;;;;;;31.38;9.35;;;3.50;99.90;;;;;;5037948;28;20161;-80
2023/11/30 11:02:37;;;;;;;27.92;8.35;;;3.60;99.90;;;;;;5019989;28;20700;-80
2023/11/30 11:05:08;;;;;;;38.50;9.80;;;3.60;99.90;;;;;;5038336;28;20185;-80
2023/11/30 11:07:34;;;;;;;32.63;9.50;;;3.60;99.90;;;;;;5038201;28;20611;-80
2023/11/30 11:10:05;;;;;;;28.38;8.75;;;3.60;99.90;;;;;;5037756;28;20165;-82
2023/11/30 11:12:40;;;;;;;30.42;9.57;;;3.60;99.90;;;;;;5020594;28;20645;-82
2023/11/30 11:15:12;;;;;;;27.92;8.02;;;3.70;99.90;;;;;;5038551;28;20211;-82
2023/11/30 11:18:02;;;;;;;28.08;8.43;;;3.60;99.90;;;;;;5037319;28;20186;-82
2023/11/30 11:20:30;;;;;;;29.80;9.45;;;3.60;99.90;;;;;;5037474;28;20171;-82
2023/11/30 11:23:19;;;;;;;26.27;8.65;;;3.70;99.90;;;;;;5037434;28;20512;-82
2023/11/30 11:25:46;;;;;;;26.67;7.65;;;3.80;99.90;;;;;;5038545;28;20237;-82
2023/11/30 11:28:13;;;;;;;27.70;8.35;;;3.80;99.90;;;;;;5019510;28;20184;-82
2023/11/30 11:30:46;;;;;;;28.90;9.20;;;3.70;99.90;;;;;;5038137;28;20165;-82
2023/11/30 11:33:15;;;;;;;33.10;9.65;;;3.70;99.90;;;;;;5037960;28;20154;-80
2023/11/30 11:35:40;;;;;;;33.22;10.15;;;3.60;99.90;;;;;;5020312;28;20243;-80
2023/11/30 11:38:06;;;;;;;26.43;7.40;;;3.70;99.90;;;;;;5038232;28;20284;-80
2023/11/30 11:40:32;;;;;;;27.57;8.20;;;3.80;99.90;;;;;;5037759;28;20527;-80
2023/11/30 11:42:59;;;;;;;27.30;8.07;;;3.90;99.90;;;;;;5019668;28;20177;-80
2023/11/30 11:45:25;;;;;;;28.48;8.52;;;3.90;99.90;;;;;;5037252;28;20225;-80
2023/11/30 11:47:51;;;;;;;30.33;8.67;;;4.00;99.90;;;;;;5020388;28;20173;-80
2023/11/30 11:50:20;;;;;;;29.75;8.52;;;4.00;99.90;;;;;;5037972;28;20409;-81
2023/11/30 11:52:49;;;;;;;27.42;7.88;;;4.10;99.90;;;;;;5020204;28;20169;-80
2023/11/30 11:55:22;;;;;;;30.67;8.27;;;4.20;99.90;;;;;;5019648;28;20681;-81
2023/11/30 11:57:48;;;;;;;26.70;8.18;;;4.20;99.90;;;;;;5020137;28;20194;-80
2023/11/30 12:00:20;;;;;;;27.27;7.80;;;4.20;99.90;;;;;;5037616;28;20169;-80
2023/11/30 12:02:47;;;;;;;32.85;7.78;;;4.10;99.90;;;;;;5020579;28;20615;-81
2023/11/30 12:05:20;;;;;;;26.70;7.40;;;4.20;99.90;;;;;;5019836;28;20189;-80
2023/11/30 12:08:00;;;;;;;27.05;6.68;;;4.20;99.90;;;;;;5020057;28;20163;-81
2023/11/30 12:10:32;;;;;;;29.25;6.97;;;4.00;99.90;;;;;;5040396;28;20197;-81
2023/11/30 12:13:02;;;;;;;25.17;7.10;;;4.10;99.90;;;;;;5041196;28;20180;-81
2023/11/30 12:15:28;;;;;;;26.35;8.35;;;4.20;99.90;;;;;;5041063;28;20192;-81
2023/11/30 12:17:54;;;;;;;27.08;7.90;;;4.10;99.90;;;;;;5041147;28;20674;-81
2023/11/30 12:20:24;;;;;;;27.60;7.70;;;4.20;99.90;;;;;;5023810;28;20166;-81
2023/11/30 12:22:53;;;;;;;25.70;7.75;;;4.20;99.90;;;;;;5041437;28;20404;-81
2023/11/30 12:25:18;;;;;;;24.80;7.20;;;4.20;99.90;;;;;;5022945;28;20581;-81
2023/11/30 12:27:44;;;;;;;25.30;7.37;;;4.20;99.90;;;;;;5023310;28;20166;-81
2023/11/30 12:30:10;;;;;;;26.40;8.20;;;4.10;99.90;;;;;;5023176;28;20420;-83
2023/11/30 12:32:37;;;;;;;25.83;7.93;;;4.00;99.90;;;;;;5041241;28;20174;-83
2023/11/30 12:35:04;;;;;;;26.50;8.38;;;4.10;99.90;;;;;;5040836;28;20271;-83
2023/11/30 12:37:31;;;;;;;25.67;7.10;;;4.20;99.90;;;;;;5023295;28;20601;-83